createdAt,value
2019-01-16T00:02:50.419Z,3.10
2019-01-16T00:05:55.302Z,3.10
2019-01-16T00:08:49.363Z,3.10
2019-01-16T00:11:42.104Z,3.10
2019-01-16T00:14:30.671Z,3.10
2019-01-16T00:17:15.727Z,3.10
2019-01-16T00:20:03.887Z,3.10
2019-01-16T00:22:51.611Z,3.10
2019-01-16T00:25:48.870Z,3.10
2019-01-16T00:28:37.299Z,3.10
2019-01-16T00:31:29.640Z,3.10
2019-01-16T00:34:18.309Z,3.10
2019-01-16T00:37:18.285Z,3.20
2019-01-16T00:40:09.093Z,3.10
2019-01-16T00:42:57.242Z,3.10
2019-01-16T00:45:49.759Z,3.10
2019-01-16T00:48:54.202Z,3.10
2019-01-16T00:51:49.836Z,3.10
2019-01-16T00:54:37.986Z,3.10
2019-01-16T00:57:19.243Z,3.20
2019-01-16T01:00:15.277Z,3.20
2019-01-16T01:03:07.556Z,3.20
2019-01-16T01:06:01.434Z,3.10
2019-01-16T01:08:50.859Z,3.20
2019-01-16T01:11:37.270Z,3.10
2019-01-16T01:14:19.071Z,3.20
2019-01-16T01:17:08.012Z,3.20
2019-01-16T01:20:00.275Z,3.20
2019-01-16T01:22:41.041Z,3.20
2019-01-16T01:25:29.389Z,3.20
2019-01-16T01:28:07.698Z,3.20
2019-01-16T01:30:55.980Z,3.20
2019-01-16T01:33:44.665Z,3.10
2019-01-16T01:36:46.131Z,3.10
2019-01-16T01:39:34.260Z,3.20
2019-01-16T01:42:29.969Z,3.20
2019-01-16T01:45:19.406Z,3.20
2019-01-16T01:48:09.103Z,3.10
2019-01-16T01:51:17.151Z,3.10
2019-01-16T01:53:58.678Z,3.10
2019-01-16T01:56:51.012Z,3.10
2019-01-16T01:59:39.360Z,3.20
2019-01-16T02:02:34.667Z,3.10
2019-01-16T02:05:23.618Z,3.10
2019-01-16T02:08:13.246Z,3.10
2019-01-16T02:11:15.186Z,3.10
2019-01-16T02:14:02.845Z,3.10
2019-01-16T02:16:42.921Z,3.10
2019-01-16T02:19:28.361Z,3.10
2019-01-16T02:22:16.849Z,3.10
2019-01-16T02:25:09.050Z,3.10
2019-01-16T02:27:56.894Z,3.00
2019-01-16T02:30:46.961Z,3.10
2019-01-16T02:33:35.776Z,3.00
2019-01-16T02:36:16.883Z,3.00
2019-01-16T02:38:59.141Z,3.00
2019-01-16T02:41:47.214Z,3.00
2019-01-16T02:44:39.953Z,3.00
2019-01-16T02:47:29.478Z,3.00
2019-01-16T02:50:17.994Z,3.00
2019-01-16T02:53:17.540Z,3.10
2019-01-16T02:56:25.382Z,3.00
2019-01-16T02:59:15.086Z,3.00
2019-01-16T03:02:13.606Z,3.00
2019-01-16T03:05:02.303Z,3.00
2019-01-16T03:07:40.550Z,3.00
2019-01-16T03:10:29.101Z,2.90
2019-01-16T03:13:12.753Z,3.00
2019-01-16T03:16:14.351Z,3.00
2019-01-16T03:19:13.340Z,3.00
2019-01-16T03:22:04.025Z,3.00
2019-01-16T03:24:52.428Z,3.00
2019-01-16T03:27:41.158Z,3.00
2019-01-16T03:30:43.465Z,2.90
2019-01-16T03:33:31.640Z,2.90
2019-01-16T03:36:11.407Z,3.00
2019-01-16T03:38:49.543Z,2.90
2019-01-16T03:41:26.751Z,2.90
2019-01-16T03:44:17.721Z,3.00
2019-01-16T03:47:05.878Z,2.90
2019-01-16T03:49:54.242Z,3.00
2019-01-16T03:52:42.868Z,2.90
2019-01-16T03:55:47.462Z,2.90
2019-01-16T03:58:32.382Z,2.90
2019-01-16T04:01:22.148Z,2.90
2019-01-16T04:03:59.984Z,2.90
2019-01-16T04:06:48.391Z,2.90
2019-01-16T04:09:41.339Z,2.80
2019-01-16T04:12:37.361Z,2.80
2019-01-16T04:15:42.610Z,2.90
2019-01-16T04:18:26.245Z,2.90
2019-01-16T04:21:21.695Z,2.90
2019-01-16T04:24:23.597Z,2.90
2019-01-16T04:27:31.578Z,2.80
2019-01-16T04:30:10.544Z,2.80
2019-01-16T04:32:55.349Z,2.80
2019-01-16T04:35:47.829Z,2.80
2019-01-16T04:38:36.058Z,2.80
2019-01-16T04:41:21.695Z,2.80
2019-01-16T04:44:11.901Z,2.70
2019-01-16T04:47:13.459Z,2.80
2019-01-16T04:49:54.774Z,2.80
2019-01-16T04:52:44.657Z,2.80
2019-01-16T04:55:40.545Z,2.80
2019-01-16T04:58:32.848Z,2.80
2019-01-16T05:01:21.211Z,2.80
2019-01-16T05:04:21.726Z,2.80
2019-01-16T05:07:17.462Z,2.80
2019-01-16T05:10:13.070Z,2.80
2019-01-16T05:13:05.334Z,2.80
2019-01-16T05:15:54.756Z,2.70
2019-01-16T05:18:48.056Z,2.70
2019-01-16T05:21:40.498Z,2.70
2019-01-16T05:24:29.779Z,2.80
2019-01-16T05:27:22.568Z,2.70
2019-01-16T05:30:11.971Z,2.70
2019-01-16T05:32:53.154Z,2.70
2019-01-16T05:35:35.990Z,2.70
2019-01-16T05:38:27.507Z,2.70
2019-01-16T05:41:32.789Z,2.70
2019-01-16T05:44:28.685Z,2.70
2019-01-16T05:47:37.070Z,2.70
2019-01-16T05:50:28.461Z,2.60
2019-01-16T05:53:16.779Z,2.70
2019-01-16T05:56:00.883Z,2.60
2019-01-16T05:58:42.831Z,2.60
2019-01-16T06:01:39.457Z,2.60
2019-01-16T06:04:37.917Z,2.60
2019-01-16T06:07:33.507Z,2.60
2019-01-16T06:10:23.438Z,2.70
2019-01-16T06:13:12.220Z,2.60
2019-01-16T06:15:51.744Z,2.60
2019-01-16T06:18:47.728Z,2.60
2019-01-16T06:21:49.740Z,2.60
2019-01-16T06:24:42.039Z,2.60
2019-01-16T06:27:37.332Z,2.60
2019-01-16T06:30:36.237Z,2.50
2019-01-16T06:33:17.092Z,2.50
2019-01-16T06:36:15.434Z,2.50
2019-01-16T06:39:07.664Z,2.50
2019-01-16T06:41:56.399Z,2.50
2019-01-16T06:44:45.933Z,2.60
2019-01-16T06:47:36.534Z,2.50
2019-01-16T06:50:39.763Z,2.50
2019-01-16T06:53:42.327Z,2.40
2019-01-16T06:56:30.008Z,2.40
2019-01-16T06:59:12.672Z,2.30
2019-01-16T07:02:11.697Z,2.20
2019-01-16T07:05:13.677Z,2.20
2019-01-16T07:08:13.211Z,2.20
2019-01-16T07:11:01.266Z,2.10
2019-01-16T07:13:42.827Z,2.10
2019-01-16T07:16:38.513Z,2.10
2019-01-16T07:19:26.689Z,2.10
2019-01-16T07:22:14.999Z,2.00
2019-01-16T07:25:03.076Z,2.00
2019-01-16T07:28:04.429Z,2.00
2019-01-16T07:30:52.952Z,2.00
2019-01-16T07:33:42.457Z,1.90
2019-01-16T07:36:28.061Z,2.00
2019-01-16T07:39:20.185Z,2.00
2019-01-16T07:42:16.479Z,2.00
2019-01-16T07:45:04.188Z,2.00
2019-01-16T07:48:02.008Z,2.00
2019-01-16T07:50:50.540Z,2.10
2019-01-16T07:53:58.456Z,2.10
2019-01-16T07:56:47.883Z,2.20
2019-01-16T07:59:40.273Z,2.10
2019-01-16T08:02:28.538Z,2.10
2019-01-16T08:05:17.176Z,2.20
2019-01-16T08:08:24.954Z,2.20
2019-01-16T08:11:23.925Z,2.20
2019-01-16T08:14:13.646Z,2.30
2019-01-16T08:16:56.525Z,2.30
2019-01-16T08:19:48.792Z,2.40
2019-01-16T08:22:40.281Z,2.50
2019-01-16T08:25:38.613Z,2.50
2019-01-16T08:28:27.623Z,2.60
2019-01-16T08:31:16.567Z,2.70
2019-01-16T08:34:05.976Z,2.90
2019-01-16T08:36:57.088Z,2.90
2019-01-16T08:39:45.384Z,3.00
2019-01-16T08:42:33.956Z,3.00
2019-01-16T08:45:29.500Z,3.00
2019-01-16T08:48:34.254Z,3.10
2019-01-16T08:51:27.131Z,3.20
2019-01-16T08:54:24.244Z,3.30
2019-01-16T08:57:10.959Z,3.20
2019-01-16T08:59:59.750Z,3.10
2019-01-16T09:02:58.444Z,3.20
2019-01-16T09:05:54.058Z,3.20
2019-01-16T09:08:43.828Z,3.30
2019-01-16T09:11:32.214Z,3.40
2019-01-16T09:14:30.922Z,3.30
2019-01-16T09:17:29.283Z,3.40
2019-01-16T09:20:17.960Z,3.50
2019-01-16T09:23:01.183Z,3.70
2019-01-16T09:25:56.710Z,3.80
2019-01-16T09:28:46.158Z,3.80
2019-01-16T09:31:41.499Z,3.90
2019-01-16T09:34:43.067Z,4.00
2019-01-16T09:37:38.908Z,4.00
2019-01-16T09:40:27.423Z,4.10
2019-01-16T09:43:21.772Z,4.30
2019-01-16T09:46:14.945Z,4.30
2019-01-16T09:49:04.499Z,4.50
2019-01-16T09:52:05.852Z,4.70
2019-01-16T09:54:54.438Z,5.00
2019-01-16T09:57:44.298Z,5.20
2019-01-16T10:00:42.728Z,5.50
2019-01-16T10:03:37.082Z,5.70
2019-01-16T10:06:29.373Z,5.90
2019-01-16T10:09:17.834Z,5.90
2019-01-16T10:12:06.145Z,5.70
2019-01-16T10:14:55.616Z,5.60
2019-01-16T10:17:57.293Z,5.70
2019-01-16T10:20:59.245Z,5.80
2019-01-16T10:23:48.683Z,5.90
2019-01-16T10:26:44.063Z,6.10
2019-01-16T10:29:23.319Z,6.20
2019-01-16T10:32:07.629Z,6.10
2019-01-16T10:35:12.399Z,6.40
2019-01-16T10:38:10.785Z,6.40
2019-01-16T10:40:56.202Z,6.60
2019-01-16T10:43:45.882Z,6.70
2019-01-16T10:46:38.166Z,6.80
2019-01-16T10:49:28.166Z,7.10
2019-01-16T10:52:13.621Z,7.10
2019-01-16T10:55:01.754Z,7.10
2019-01-16T10:58:09.638Z,7.10
2019-01-16T11:01:02.079Z,6.80
2019-01-16T11:03:51.714Z,6.80
2019-01-16T11:06:39.874Z,6.90
2019-01-16T11:09:23.718Z,6.90
2019-01-16T11:12:12.330Z,7.00
2019-01-16T11:14:57.196Z,6.80
2019-01-16T11:18:02.033Z,6.70
2019-01-16T11:20:43.836Z,6.90
2019-01-16T11:23:45.387Z,7.10
2019-01-16T11:26:41.258Z,7.10
2019-01-16T11:29:42.941Z,7.00
2019-01-16T11:32:35.125Z,7.00
2019-01-16T11:35:35.654Z,6.90
2019-01-16T11:38:37.443Z,7.10
2019-01-16T11:41:42.695Z,7.30
2019-01-16T11:44:32.202Z,7.40
2019-01-16T11:47:20.531Z,7.40
2019-01-16T11:50:18.428Z,7.20
2019-01-16T11:53:04.554Z,6.90
2019-01-16T11:55:54.698Z,6.80
2019-01-16T11:58:51.994Z,6.70
2019-01-16T12:01:40.161Z,6.70
2019-01-16T12:04:25.345Z,6.90
2019-01-16T12:07:18.323Z,6.80
2019-01-16T12:10:06.779Z,6.70
2019-01-16T12:12:47.535Z,6.50
2019-01-16T12:15:36.929Z,6.50
2019-01-16T12:18:25.819Z,6.50
2019-01-16T12:21:14.754Z,6.40
2019-01-16T12:23:58.672Z,6.30
2019-01-16T12:26:48.184Z,6.30
2019-01-16T12:29:47.965Z,6.20
2019-01-16T12:32:40.198Z,6.10
2019-01-16T12:35:32.887Z,6.20
2019-01-16T12:38:26.147Z,6.20
2019-01-16T12:41:30.694Z,6.40
2019-01-16T12:44:20.705Z,6.30
2019-01-16T12:47:29.078Z,6.20
2019-01-16T12:50:15.633Z,6.10
2019-01-16T12:53:09.154Z,6.10
2019-01-16T12:55:59.715Z,6.10
2019-01-16T12:58:47.884Z,5.90
2019-01-16T13:01:49.423Z,5.80
2019-01-16T13:04:41.624Z,5.90
2019-01-16T13:07:46.497Z,6.00
2019-01-16T13:10:34.657Z,6.10
2019-01-16T13:13:39.493Z,6.00
2019-01-16T13:16:32.143Z,6.00
2019-01-16T13:19:20.822Z,5.80
2019-01-16T13:22:14.376Z,5.80
2019-01-16T13:25:13.770Z,5.80
2019-01-16T13:28:09.108Z,5.90
2019-01-16T13:31:01.377Z,5.90
2019-01-16T13:33:40.848Z,6.00
2019-01-16T13:36:30.958Z,6.00
2019-01-16T13:39:20.130Z,5.90
2019-01-16T13:42:14.656Z,5.90
2019-01-16T13:44:59.411Z,6.00
2019-01-16T13:47:46.361Z,5.90
2019-01-16T13:50:51.403Z,5.80
2019-01-16T13:53:39.569Z,5.80
2019-01-16T13:56:32.490Z,5.80
2019-01-16T13:59:21.059Z,5.80
2019-01-16T14:02:02.944Z,5.80
2019-01-16T14:05:01.509Z,5.80
2019-01-16T14:07:50.599Z,5.80
2019-01-16T14:10:30.547Z,5.70
2019-01-16T14:13:32.692Z,5.70
2019-01-16T14:16:34.736Z,5.70
2019-01-16T14:19:31.150Z,5.70
2019-01-16T14:22:20.950Z,5.70
2019-01-16T14:25:05.901Z,5.70
2019-01-16T14:28:08.191Z,5.70
2019-01-16T14:31:10.092Z,5.60
2019-01-16T14:33:58.413Z,5.50
2019-01-16T14:36:46.846Z,5.50
2019-01-16T14:39:48.164Z,5.50
2019-01-16T14:42:39.101Z,5.50
2019-01-16T14:45:46.768Z,5.30
2019-01-16T14:48:45.968Z,5.20
2019-01-16T14:51:27.675Z,5.10
2019-01-16T14:54:16.052Z,5.00
2019-01-16T14:57:18.486Z,5.00
2019-01-16T15:00:08.051Z,4.80
2019-01-16T15:03:03.538Z,4.80
2019-01-16T15:05:57.920Z,4.70
2019-01-16T15:08:40.407Z,4.50
2019-01-16T15:11:31.403Z,4.40
2019-01-16T15:14:21.263Z,4.30
2019-01-16T15:17:08.487Z,4.20
2019-01-16T15:20:00.816Z,4.10
2019-01-16T15:22:56.623Z,4.00
2019-01-16T15:25:49.660Z,3.90
2019-01-16T15:28:57.957Z,3.80
2019-01-16T15:31:47.533Z,3.70
2019-01-16T15:34:40.171Z,3.60
2019-01-16T15:37:20.151Z,3.50
2019-01-16T15:40:13.833Z,3.40
2019-01-16T15:43:03.545Z,3.30
2019-01-16T15:45:52.462Z,3.30
2019-01-16T15:48:40.890Z,3.20
2019-01-16T15:51:28.194Z,3.10
2019-01-16T15:54:12.105Z,3.10
2019-01-16T15:57:00.620Z,3.10
2019-01-16T15:59:49.784Z,3.00
2019-01-16T16:03:00.173Z,2.90
2019-01-16T16:05:48.540Z,2.90
2019-01-16T16:08:53.316Z,2.90
2019-01-16T16:11:44.164Z,2.80
2019-01-16T16:14:30.492Z,2.70
2019-01-16T16:17:26.034Z,2.60
2019-01-16T16:20:14.694Z,2.60
2019-01-16T16:23:10.006Z,2.60
2019-01-16T16:26:11.733Z,2.50
2019-01-16T16:29:02.030Z,2.50
2019-01-16T16:31:51.646Z,2.40
2019-01-16T16:34:33.799Z,2.40
2019-01-16T16:37:36.596Z,2.40
2019-01-16T16:40:20.561Z,2.40
2019-01-16T16:43:14.926Z,2.40
2019-01-16T16:46:17.618Z,2.30
2019-01-16T16:49:12.927Z,2.30
2019-01-16T16:52:01.170Z,2.30
2019-01-16T16:54:49.301Z,2.30
2019-01-16T16:57:51.574Z,2.30
2019-01-16T17:00:41.844Z,2.20
2019-01-16T17:03:31.650Z,2.20
2019-01-16T17:06:19.872Z,2.10
2019-01-16T17:09:19.835Z,2.10
2019-01-16T17:12:29.355Z,2.10
2019-01-16T17:15:19.021Z,2.00
2019-01-16T17:18:12.023Z,1.90
2019-01-16T17:21:01.031Z,1.90
2019-01-16T17:23:49.583Z,1.80
2019-01-16T17:26:37.992Z,1.80
2019-01-16T17:29:26.777Z,1.80
2019-01-16T17:32:05.039Z,1.80
2019-01-16T17:34:54.846Z,1.70
2019-01-16T17:37:42.966Z,1.70
2019-01-16T17:40:37.498Z,1.70
2019-01-16T17:43:25.737Z,1.60
2019-01-16T17:46:24.585Z,1.60
2019-01-16T17:49:18.477Z,1.50
2019-01-16T17:52:06.680Z,1.50
2019-01-16T17:55:14.675Z,1.50
2019-01-16T17:58:05.940Z,1.40
2019-01-16T18:00:50.213Z,1.40
2019-01-16T18:03:38.461Z,1.50
2019-01-16T18:06:26.752Z,1.40
2019-01-16T18:09:11.664Z,1.40
2019-01-16T18:12:04.159Z,1.40
2019-01-16T18:14:54.136Z,1.40
2019-01-16T18:17:52.918Z,1.30
2019-01-16T18:20:45.200Z,1.30
2019-01-16T18:23:26.638Z,1.30
2019-01-16T18:26:15.105Z,1.30
2019-01-16T18:29:04.949Z,1.30
2019-01-16T18:32:03.582Z,1.20
2019-01-16T18:35:05.152Z,1.20
2019-01-16T18:37:44.902Z,1.20
2019-01-16T18:40:24.085Z,1.20
2019-01-16T18:43:22.854Z,1.10
2019-01-16T18:46:24.770Z,1.10
2019-01-16T18:49:14.551Z,1.10
2019-01-16T18:52:19.326Z,1.10
2019-01-16T18:55:23.761Z,1.00
2019-01-16T18:58:03.775Z,1.00
2019-01-16T19:01:08.628Z,1.00
2019-01-16T19:03:50.331Z,0.90
2019-01-16T19:06:38.471Z,0.90
2019-01-16T19:09:29.516Z,0.80
2019-01-16T19:12:17.900Z,0.80
2019-01-16T19:15:25.830Z,0.70
2019-01-16T19:18:20.766Z,0.70
2019-01-16T19:21:26.461Z,0.60
2019-01-16T19:24:17.075Z,0.70
2019-01-16T19:27:09.708Z,0.60
2019-01-16T19:30:05.288Z,0.60
2019-01-16T19:33:07.405Z,0.60
2019-01-16T19:35:55.837Z,0.70
2019-01-16T19:38:44.409Z,0.80
2019-01-16T19:41:32.767Z,1.10
2019-01-16T19:44:18.169Z,1.20
2019-01-16T19:47:10.855Z,1.30
2019-01-16T19:50:15.682Z,1.40
2019-01-16T19:53:10.048Z,1.40
2019-01-16T19:55:58.320Z,1.40
2019-01-16T19:58:51.061Z,1.40
2019-01-16T20:01:39.865Z,1.50
2019-01-16T20:04:29.459Z,1.40
2019-01-16T20:07:25.359Z,1.40
2019-01-16T20:10:15.330Z,1.40
2019-01-16T20:13:08.059Z,1.30
2019-01-16T20:16:00.518Z,1.30
2019-01-16T20:18:52.974Z,1.40
2019-01-16T20:21:51.544Z,1.40
2019-01-16T20:24:40.604Z,1.40
2019-01-16T20:27:28.801Z,1.40
2019-01-16T20:30:21.780Z,1.40
2019-01-16T20:33:07.806Z,1.40
2019-01-16T20:35:56.001Z,1.40
2019-01-16T20:38:44.098Z,1.50
2019-01-16T20:41:32.620Z,1.40
2019-01-16T20:44:18.500Z,1.40
2019-01-16T20:47:05.686Z,1.40
2019-01-16T20:49:53.980Z,1.40
2019-01-16T20:52:49.707Z,1.40
2019-01-16T20:55:33.481Z,1.40
2019-01-16T20:58:32.816Z,1.50
2019-01-16T21:01:28.527Z,1.60
2019-01-16T21:04:33.309Z,1.50
2019-01-16T21:07:31.646Z,1.50
2019-01-16T21:10:12.839Z,1.60
2019-01-16T21:13:17.431Z,1.60
2019-01-16T21:16:06.552Z,1.60
2019-01-16T21:22:01.754Z,1.60
2019-01-16T21:24:57.400Z,1.60
2019-01-16T21:27:49.958Z,1.60
2019-01-16T21:31:00.562Z,1.60
2019-01-16T21:33:56.215Z,1.70
2019-01-16T21:36:44.350Z,1.70
2019-01-16T21:39:32.964Z,1.70
2019-01-16T21:42:31.567Z,1.70
2019-01-16T21:45:27.384Z,1.70
2019-01-16T21:48:11.934Z,1.70
2019-01-16T21:51:00.262Z,1.70
2019-01-16T21:53:48.305Z,1.70
2019-01-16T21:56:35.770Z,1.70
2019-01-16T21:59:37.703Z,1.70
2019-01-16T22:02:23.199Z,1.80
2019-01-16T22:05:13.274Z,1.70
2019-01-16T22:07:56.738Z,1.70
2019-01-16T22:10:55.447Z,1.70
2019-01-16T22:13:45.022Z,1.70
2019-01-16T22:16:33.322Z,1.70
2019-01-16T22:19:22.257Z,1.60
2019-01-16T22:22:30.063Z,1.60
2019-01-16T22:25:28.550Z,1.60
2019-01-16T22:28:10.169Z,1.60
2019-01-16T22:31:05.733Z,1.60
2019-01-16T22:33:53.959Z,1.60
2019-01-16T22:36:46.465Z,1.60
2019-01-16T22:39:42.070Z,1.70
2019-01-16T22:42:30.144Z,1.70
2019-01-16T22:45:12.050Z,1.70
2019-01-16T22:48:05.945Z,1.70
2019-01-16T22:50:55.432Z,1.70
2019-01-16T22:53:43.724Z,1.70
2019-01-16T22:56:36.400Z,1.70
2019-01-16T22:59:24.052Z,1.70
2019-01-16T23:02:16.552Z,1.80
2019-01-16T23:05:12.391Z,1.80
2019-01-16T23:08:07.946Z,1.70
2019-01-16T23:11:12.949Z,1.60
2019-01-16T23:14:20.777Z,1.40
2019-01-16T23:17:23.968Z,1.30
2019-01-16T23:20:17.419Z,1.30
2019-01-16T23:23:02.385Z,1.30
2019-01-16T23:25:49.685Z,1.20
2019-01-16T23:28:37.963Z,1.20
2019-01-16T23:31:26.369Z,1.20
2019-01-16T23:34:14.697Z,1.20
2019-01-16T23:37:03.049Z,1.30
2019-01-16T23:39:52.512Z,1.40
2019-01-16T23:42:44.996Z,1.40
2019-01-16T23:45:34.430Z,1.40
2019-01-16T23:48:33.296Z,1.50
2019-01-16T23:51:18.528Z,1.40
2019-01-16T23:54:15.615Z,1.50
2019-01-16T23:57:11.717Z,1.60
